createdAt,value
2018-03-03T00:01:13.970Z,77.30
2018-03-03T00:03:40.239Z,77.40
2018-03-03T00:06:07.303Z,77.50
2018-03-03T00:08:33.556Z,77.70
2018-03-03T00:10:59.789Z,77.80
2018-03-03T00:13:26.038Z,77.70
2018-03-03T00:15:54.908Z,77.60
2018-03-03T00:18:21.155Z,77.60
2018-03-03T00:20:47.374Z,77.40
2018-03-03T00:23:13.644Z,77.10
2018-03-03T00:25:40.636Z,77.30
2018-03-03T00:28:06.888Z,77.20
2018-03-03T00:30:33.115Z,77.30
2018-03-03T00:32:59.452Z,77.00
2018-03-03T00:35:25.692Z,77.00
2018-03-03T00:37:51.984Z,77.20
2018-03-03T00:40:18.460Z,77.10
2018-03-03T00:42:44.713Z,76.90
2018-03-03T00:45:10.948Z,76.90
2018-03-03T00:47:37.182Z,76.90
2018-03-03T00:50:03.430Z,77.30
2018-03-03T00:52:29.660Z,77.30
2018-03-03T00:54:55.966Z,77.30
2018-03-03T00:57:22.205Z,77.80
2018-03-03T00:59:48.466Z,77.70
2018-03-03T01:02:14.700Z,78.10
2018-03-03T01:04:40.959Z,79.00
2018-03-03T01:07:07.234Z,78.60
2018-03-03T01:09:33.696Z,78.50
2018-03-03T01:11:59.935Z,78.50
2018-03-03T01:14:27.038Z,78.10
2018-03-03T01:16:53.267Z,78.60
2018-03-03T01:19:19.535Z,78.50
2018-03-03T01:21:45.771Z,78.20
2018-03-03T01:24:12.046Z,78.30
2018-03-03T01:26:38.275Z,78.20
2018-03-03T01:29:04.596Z,78.10
2018-03-03T01:31:30.838Z,77.60
2018-03-03T01:33:57.095Z,77.80
2018-03-03T01:36:23.335Z,77.60
2018-03-03T01:38:49.581Z,77.70
2018-03-03T01:41:15.844Z,77.30
2018-03-03T01:43:42.131Z,77.40
2018-03-03T01:46:08.394Z,77.70
2018-03-03T01:48:34.622Z,77.40
2018-03-03T01:51:01.811Z,77.10
2018-03-03T01:53:28.044Z,77.30
2018-03-03T01:55:54.287Z,77.30
2018-03-03T01:58:20.510Z,77.10
2018-03-03T02:00:47.776Z,76.60
2018-03-03T02:03:14.022Z,76.80
2018-03-03T02:05:40.280Z,76.70
2018-03-03T02:08:07.024Z,76.90
2018-03-03T02:10:33.303Z,76.70
2018-03-03T02:12:59.579Z,76.80
2018-03-03T02:15:26.146Z,77.20
2018-03-03T02:17:52.375Z,77.10
2018-03-03T02:20:18.618Z,76.90
2018-03-03T02:22:45.302Z,76.90
2018-03-03T02:25:11.623Z,76.70
2018-03-03T02:27:37.860Z,76.70
2018-03-03T02:30:04.133Z,76.70
2018-03-03T02:32:30.403Z,77.00
2018-03-03T02:34:56.637Z,77.30
2018-03-03T02:37:22.884Z,76.70
2018-03-03T02:39:49.643Z,76.70
2018-03-03T02:42:15.922Z,76.90
2018-03-03T02:44:42.152Z,76.70
2018-03-03T02:47:08.423Z,76.80
2018-03-03T02:49:34.643Z,77.20
2018-03-03T02:52:01.721Z,77.00
2018-03-03T02:54:27.986Z,77.00
2018-03-03T02:56:55.021Z,76.90
2018-03-03T02:59:22.012Z,76.80
2018-03-03T03:01:48.264Z,76.80
2018-03-03T03:04:14.556Z,76.80
2018-03-03T03:06:40.815Z,76.70
2018-03-03T03:09:07.047Z,76.50
2018-03-03T03:11:33.304Z,76.50
2018-03-03T03:13:59.561Z,76.70
2018-03-03T03:16:26.550Z,76.50
2018-03-03T03:18:52.779Z,76.50
2018-03-03T03:21:19.034Z,76.40
2018-03-03T03:23:45.307Z,76.50
2018-03-03T03:26:11.544Z,76.60
2018-03-03T03:28:38.550Z,76.80
2018-03-03T03:31:04.784Z,76.80
2018-03-03T03:33:31.027Z,76.70
2018-03-03T03:35:57.427Z,76.70
2018-03-03T03:38:23.694Z,77.00
2018-03-03T03:40:49.939Z,77.00
2018-03-03T03:43:16.196Z,76.90
2018-03-03T03:45:42.435Z,76.90
2018-03-03T03:48:08.719Z,77.10
2018-03-03T03:50:35.941Z,77.40
2018-03-03T03:53:02.215Z,77.20
2018-03-03T03:55:28.471Z,77.00
2018-03-03T03:57:54.729Z,77.10
2018-03-03T04:00:20.985Z,77.10
2018-03-03T04:02:47.588Z,77.60
2018-03-03T04:05:13.830Z,77.20
2018-03-03T04:07:40.084Z,77.00
2018-03-03T04:10:06.315Z,77.00
2018-03-03T04:12:32.552Z,77.20
2018-03-03T04:14:59.133Z,77.00
2018-03-03T04:17:27.255Z,77.20
2018-03-03T04:19:53.531Z,76.90
2018-03-03T04:22:19.779Z,76.70
2018-03-03T04:24:46.695Z,76.60
2018-03-03T04:27:12.954Z,76.50
2018-03-03T04:29:39.252Z,76.70
2018-03-03T04:32:05.583Z,76.90
2018-03-03T04:34:31.836Z,76.50
2018-03-03T04:36:58.075Z,76.40
2018-03-03T04:39:24.343Z,76.40
2018-03-03T04:41:50.590Z,76.40
2018-03-03T04:44:16.870Z,76.40
2018-03-03T04:46:43.122Z,76.40
2018-03-03T04:49:09.476Z,76.60
2018-03-03T04:51:35.780Z,77.30
2018-03-03T04:54:02.071Z,77.20
2018-03-03T04:56:28.355Z,76.80
2018-03-03T04:59:00.742Z,76.80
2018-03-03T05:01:29.987Z,76.80
2018-03-03T05:04:14.031Z,76.60
2018-03-03T05:06:46.475Z,76.50
2018-03-03T05:09:13.362Z,77.00
2018-03-03T05:11:40.370Z,76.50
2018-03-03T05:14:12.723Z,76.50
2018-03-03T05:16:39.027Z,76.50
2018-03-03T05:19:11.299Z,76.50
2018-03-03T05:21:52.502Z,76.70
2018-03-03T05:24:24.707Z,76.70
2018-03-03T05:26:57.072Z,76.40
2018-03-03T05:29:29.996Z,76.80
2018-03-03T05:32:03.003Z,76.30
2018-03-03T05:34:35.200Z,76.20
2018-03-03T05:37:08.082Z,76.60
2018-03-03T05:39:41.507Z,76.40
2018-03-03T05:42:13.886Z,76.20
2018-03-03T05:44:46.104Z,76.10
2018-03-03T05:47:27.348Z,76.10
2018-03-03T05:49:59.800Z,75.90
2018-03-03T05:52:36.802Z,75.70
2018-03-03T05:55:09.203Z,75.60
2018-03-03T05:57:56.307Z,75.70
2018-03-03T06:00:33.264Z,75.70
2018-03-03T06:03:04.474Z,75.70
2018-03-03T06:05:46.543Z,76.30
2018-03-03T06:08:23.721Z,76.00
2018-03-03T06:10:49.975Z,75.80
2018-03-03T06:13:17.014Z,75.90
2018-03-03T06:15:43.231Z,75.90
2018-03-03T06:18:09.592Z,76.10
2018-03-03T06:20:35.826Z,75.90
2018-03-03T06:23:02.833Z,75.90
2018-03-03T06:25:29.082Z,75.90
2018-03-03T06:27:55.340Z,75.70
2018-03-03T06:30:25.377Z,75.60
2018-03-03T06:32:54.463Z,75.60
2018-03-03T06:35:20.707Z,75.70
2018-03-03T06:37:47.007Z,76.10
2018-03-03T06:40:13.323Z,75.80
2018-03-03T06:42:39.571Z,75.90
2018-03-03T06:45:05.822Z,75.60
2018-03-03T06:47:32.105Z,75.50
2018-03-03T06:49:58.364Z,75.10
2018-03-03T06:52:24.611Z,74.90
2018-03-03T06:54:50.886Z,75.20
2018-03-03T06:57:17.123Z,74.80
2018-03-03T06:59:44.352Z,74.90
2018-03-03T07:02:10.807Z,75.50
2018-03-03T07:04:37.110Z,75.00
2018-03-03T07:07:03.683Z,74.90
2018-03-03T07:09:30.629Z,75.20
2018-03-03T07:11:56.891Z,75.00
2018-03-03T07:14:26.165Z,74.90
2018-03-03T07:16:52.462Z,74.80
2018-03-03T07:19:18.727Z,74.30
2018-03-03T07:21:44.979Z,74.40
2018-03-03T07:24:12.599Z,74.20
2018-03-03T07:26:38.890Z,74.40
2018-03-03T07:29:05.236Z,74.10
2018-03-03T07:31:31.475Z,74.00
2018-03-03T07:33:57.783Z,74.40
2018-03-03T07:36:24.031Z,73.90
2018-03-03T07:38:50.680Z,73.40
2018-03-03T07:41:16.944Z,73.50
2018-03-03T07:43:43.450Z,73.50
2018-03-03T07:46:09.727Z,73.30
2018-03-03T07:48:36.003Z,72.60
2018-03-03T07:51:02.288Z,72.70
2018-03-03T07:53:29.117Z,72.70
2018-03-03T07:55:55.408Z,72.40
2018-03-03T08:01:24.883Z,71.70
2018-03-03T08:03:51.169Z,71.50
2018-03-03T08:06:19.424Z,72.10
2018-03-03T08:08:45.926Z,72.10
2018-03-03T08:11:12.211Z,71.30
2018-03-03T08:13:38.543Z,71.20
2018-03-03T08:16:04.791Z,71.20
2018-03-03T08:18:31.096Z,70.70
2018-03-03T08:20:58.093Z,70.60
2018-03-03T08:23:24.400Z,70.60
2018-03-03T08:25:50.699Z,70.50
2018-03-03T08:28:16.930Z,70.70
2018-03-03T08:30:44.148Z,69.50
2018-03-03T08:33:10.467Z,69.80
2018-03-03T08:35:36.687Z,69.40
2018-03-03T08:38:02.991Z,69.90
2018-03-03T08:40:29.242Z,69.90
2018-03-03T08:42:55.494Z,70.00
2018-03-03T08:45:22.051Z,70.30
2018-03-03T08:47:48.323Z,70.60
2018-03-03T08:50:14.555Z,71.00
2018-03-03T08:52:40.806Z,70.80
2018-03-03T08:55:07.305Z,70.20
2018-03-03T08:57:33.604Z,70.60
2018-03-03T09:00:00.632Z,70.40
2018-03-03T09:02:26.904Z,70.40
2018-03-03T09:04:53.132Z,70.30
2018-03-03T09:07:19.406Z,70.00
2018-03-03T09:09:45.879Z,70.00
2018-03-03T09:12:12.131Z,69.50
2018-03-03T09:14:39.375Z,69.20
2018-03-03T09:17:09.094Z,69.40
2018-03-03T09:19:35.877Z,68.90
2018-03-03T09:22:02.187Z,68.70
2018-03-03T09:24:28.440Z,68.40
2018-03-03T09:26:54.971Z,68.30
2018-03-03T09:29:21.252Z,68.20
2018-03-03T09:31:47.689Z,68.50
2018-03-03T09:34:14.074Z,68.20
2018-03-03T09:36:40.298Z,68.20
2018-03-03T09:39:06.548Z,68.40
2018-03-03T09:41:32.914Z,69.00
2018-03-03T09:43:59.188Z,67.90
2018-03-03T09:46:25.450Z,67.80
2018-03-03T09:48:51.738Z,68.20
2018-03-03T09:51:18.003Z,67.80
2018-03-03T09:53:44.712Z,68.10
2018-03-03T09:56:10.946Z,67.60
2018-03-03T09:58:37.619Z,67.20
2018-03-03T10:01:03.919Z,67.00
2018-03-03T10:03:31.430Z,66.80
2018-03-03T10:05:57.672Z,66.60
2018-03-03T10:08:29.063Z,66.70
2018-03-03T10:10:55.746Z,66.00
2018-03-03T10:13:22.011Z,66.30
2018-03-03T10:15:48.263Z,66.90
2018-03-03T10:18:14.530Z,66.80
2018-03-03T10:20:40.790Z,66.90
2018-03-03T10:23:07.132Z,66.80
2018-03-03T10:25:33.409Z,66.90
2018-03-03T10:27:59.666Z,68.30
2018-03-03T10:30:25.948Z,67.50
2018-03-03T10:32:52.216Z,67.10
2018-03-03T10:35:18.463Z,66.50
2018-03-03T10:37:44.747Z,67.10
2018-03-03T10:40:11.048Z,66.00
2018-03-03T10:42:38.294Z,65.90
2018-03-03T10:45:05.877Z,65.80
2018-03-03T10:47:38.158Z,65.70
2018-03-03T10:50:06.080Z,66.30
2018-03-03T10:52:34.399Z,66.30
2018-03-03T10:55:01.251Z,65.70
2018-03-03T10:57:27.648Z,65.10
2018-03-03T10:59:54.100Z,64.70
2018-03-03T11:02:20.496Z,65.60
2018-03-03T11:04:46.918Z,65.40
2018-03-03T11:07:13.247Z,64.90
2018-03-03T11:09:39.500Z,65.00
2018-03-03T11:12:06.025Z,65.00
2018-03-03T11:14:32.301Z,65.30
2018-03-03T11:16:58.773Z,64.20
2018-03-03T11:19:25.043Z,63.80
2018-03-03T11:21:51.307Z,62.70
2018-03-03T11:24:17.563Z,61.80
2018-03-03T11:26:44.818Z,61.80
2018-03-03T11:29:11.163Z,63.40
2018-03-03T11:31:37.419Z,62.20
2018-03-03T11:34:03.928Z,62.40
2018-03-03T11:36:30.294Z,62.30
2018-03-03T11:38:56.515Z,61.60
2018-03-03T11:41:23.203Z,61.50
2018-03-03T11:43:49.514Z,61.40
2018-03-03T11:46:15.855Z,60.90
2018-03-03T11:48:42.051Z,61.30
2018-03-03T11:51:08.295Z,60.50
2018-03-03T11:53:34.524Z,60.90
2018-03-03T11:56:00.781Z,60.80
2018-03-03T11:58:27.775Z,60.60
2018-03-03T12:00:54.044Z,60.50
2018-03-03T12:03:20.769Z,61.10
2018-03-03T12:05:47.024Z,61.20
2018-03-03T12:08:13.680Z,61.20
2018-03-03T12:10:39.959Z,62.30
2018-03-03T12:13:06.239Z,62.30
2018-03-03T12:15:32.627Z,61.80
2018-03-03T12:17:58.886Z,60.90
2018-03-03T12:20:25.132Z,61.50
2018-03-03T12:22:52.168Z,60.60
2018-03-03T12:25:18.448Z,60.60
2018-03-03T12:27:45.472Z,61.30
2018-03-03T12:30:11.868Z,61.20
2018-03-03T12:32:38.130Z,60.30
2018-03-03T12:35:04.400Z,61.40
2018-03-03T12:37:30.674Z,61.20
2018-03-03T12:39:56.927Z,61.00
2018-03-03T12:42:23.418Z,61.20
2018-03-03T12:44:49.675Z,61.40
2018-03-03T12:47:15.924Z,61.70
2018-03-03T12:49:42.175Z,61.70
2018-03-03T12:52:08.475Z,61.30
2018-03-03T12:54:34.716Z,61.20
2018-03-03T12:57:00.968Z,61.20
2018-03-03T12:59:27.246Z,59.80
2018-03-03T13:01:53.772Z,59.10
2018-03-03T13:04:20.977Z,60.40
2018-03-03T13:06:47.211Z,60.30
2018-03-03T13:09:13.691Z,60.10
2018-03-03T13:11:39.939Z,59.80
2018-03-03T13:14:06.238Z,59.60
2018-03-03T13:16:32.488Z,59.20
2018-03-03T13:19:00.194Z,58.00
2018-03-03T13:21:28.443Z,57.20
2018-03-03T13:23:55.587Z,57.30
2018-03-03T13:26:23.629Z,57.30
2018-03-03T13:28:50.402Z,56.70
2018-03-03T13:31:16.913Z,56.70
2018-03-03T13:33:44.324Z,55.50
2018-03-03T13:36:10.892Z,55.40
2018-03-03T13:38:37.159Z,55.90
2018-03-03T13:41:03.425Z,57.20
2018-03-03T13:43:29.744Z,57.10
2018-03-03T13:45:55.979Z,56.00
2018-03-03T13:48:23.940Z,55.50
2018-03-03T13:50:50.251Z,55.00
2018-03-03T13:53:16.479Z,54.70
2018-03-03T13:55:42.744Z,54.90
2018-03-03T13:58:08.982Z,54.80
2018-03-03T14:00:35.533Z,55.40
2018-03-03T14:03:02.561Z,56.10
2018-03-03T14:05:28.856Z,56.10
2018-03-03T14:07:55.527Z,56.60
2018-03-03T14:10:22.057Z,57.10
2018-03-03T14:12:48.303Z,57.10
2018-03-03T14:15:14.714Z,56.50
2018-03-03T14:17:41.078Z,57.40
2018-03-03T14:20:07.318Z,57.40
2018-03-03T14:22:33.759Z,57.60
2018-03-03T14:25:00.021Z,57.20
2018-03-03T14:27:27.287Z,57.50
2018-03-03T14:29:53.588Z,57.40
2018-03-03T14:32:19.819Z,56.60
2018-03-03T14:34:46.864Z,54.40
2018-03-03T14:37:13.178Z,54.40
2018-03-03T14:39:40.216Z,52.50
2018-03-03T14:42:06.476Z,51.90
2018-03-03T14:44:33.770Z,50.30
2018-03-03T14:47:00.273Z,48.60
2018-03-03T14:49:27.114Z,45.50
2018-03-03T14:51:53.371Z,43.30
2018-03-03T14:54:19.602Z,42.50
2018-03-03T14:56:45.912Z,42.20
2018-03-03T14:59:12.168Z,43.40
2018-03-03T15:01:38.424Z,42.90
2018-03-03T15:04:04.660Z,40.80
2018-03-03T15:06:31.158Z,40.20
2018-03-03T15:08:57.441Z,39.30
2018-03-03T15:11:23.716Z,39.20
2018-03-03T15:13:49.971Z,39.10
2018-03-03T15:16:16.325Z,36.70
2018-03-03T15:18:42.546Z,36.80
2018-03-03T15:21:08.821Z,38.60
2018-03-03T15:23:35.216Z,39.10
2018-03-03T15:26:01.479Z,39.50
2018-03-03T15:28:28.482Z,39.10
2018-03-03T15:30:54.855Z,39.10
2018-03-03T15:33:26.027Z,39.10
2018-03-03T15:35:52.247Z,39.30
2018-03-03T15:38:18.499Z,38.20
2018-03-03T15:40:47.322Z,38.10
2018-03-03T15:43:13.579Z,39.10
2018-03-03T15:45:40.564Z,38.80
2018-03-03T15:48:06.889Z,38.80
2018-03-03T15:50:35.416Z,37.80
2018-03-03T15:53:03.852Z,38.20
2018-03-03T15:55:30.843Z,38.90
2018-03-03T15:57:58.006Z,38.90
2018-03-03T16:00:25.702Z,38.80
2018-03-03T16:02:53.721Z,38.50
2018-03-03T16:05:20.043Z,38.50
2018-03-03T16:07:46.331Z,38.70
2018-03-03T16:10:12.701Z,39.10
2018-03-03T16:12:39.107Z,40.30
2018-03-03T16:15:06.338Z,41.00
2018-03-03T16:17:32.700Z,41.90
2018-03-03T16:19:58.943Z,42.10
2018-03-03T16:22:25.561Z,42.70
2018-03-03T16:24:52.423Z,43.70
2018-03-03T16:27:18.692Z,47.30
2018-03-03T16:29:44.941Z,50.30
2018-03-03T16:32:11.175Z,51.60
2018-03-03T16:34:37.443Z,53.80
2018-03-03T16:37:03.670Z,55.80
2018-03-03T16:39:29.919Z,57.60
2018-03-03T16:41:56.319Z,57.70
2018-03-03T16:44:23.628Z,59.00
2018-03-03T16:46:49.963Z,59.80
2018-03-03T16:49:16.252Z,61.50
2018-03-03T16:51:42.523Z,62.70
2018-03-03T16:54:08.775Z,63.50
2018-03-03T16:56:35.010Z,64.20
2018-03-03T16:59:01.381Z,65.00
2018-03-03T17:01:28.741Z,65.80
2018-03-03T17:03:55.031Z,66.20
2018-03-03T17:06:21.259Z,66.60
2018-03-03T17:08:47.518Z,67.20
2018-03-03T17:11:13.750Z,67.50
2018-03-03T17:13:40.540Z,68.00
2018-03-03T17:16:06.771Z,68.60
2018-03-03T17:18:33.027Z,68.90
2018-03-03T17:20:59.254Z,69.10
2018-03-03T17:23:26.740Z,69.60
2018-03-03T17:25:52.995Z,70.30
2018-03-03T17:28:19.303Z,70.40
2018-03-03T17:30:46.008Z,70.90
2018-03-03T17:33:12.234Z,72.10
2018-03-03T17:35:38.822Z,71.00
2018-03-03T17:38:05.168Z,71.60
2018-03-03T17:40:31.452Z,71.90
2018-03-03T17:42:58.229Z,72.30
2018-03-03T17:45:24.479Z,72.30
2018-03-03T17:47:50.774Z,72.60
2018-03-03T17:50:19.291Z,72.80
2018-03-03T17:52:56.336Z,72.90
2018-03-03T17:55:22.604Z,74.30
2018-03-03T17:57:49.600Z,73.80
2018-03-03T18:00:15.871Z,73.80
2018-03-03T18:03:08.082Z,73.90
2018-03-03T18:05:34.367Z,74.00
2018-03-03T18:08:02.139Z,74.40
2018-03-03T18:10:28.403Z,74.30
2018-03-03T18:12:54.634Z,74.30
2018-03-03T18:15:20.908Z,74.30
2018-03-03T18:17:47.155Z,73.90
2018-03-03T18:20:14.308Z,74.10
2018-03-03T18:22:42.828Z,74.10
2018-03-03T18:25:09.379Z,74.50
2018-03-03T18:27:35.646Z,74.60
2018-03-03T18:30:01.936Z,74.60
2018-03-03T18:32:28.978Z,74.70
2018-03-03T18:34:55.208Z,75.00
2018-03-03T18:37:21.780Z,75.20
2018-03-03T18:39:48.004Z,75.10
2018-03-03T18:42:14.546Z,74.90
2018-03-03T18:44:41.658Z,75.20
2018-03-03T18:47:08.069Z,75.50
2018-03-03T18:49:34.761Z,75.40
2018-03-03T18:52:02.074Z,75.60
2018-03-03T18:54:28.579Z,75.50
2018-03-03T18:56:54.812Z,75.60
2018-03-03T18:59:21.046Z,75.40
2018-03-03T19:01:48.053Z,75.50
2018-03-03T19:04:14.317Z,75.30
2018-03-03T19:06:40.595Z,75.70
2018-03-03T19:09:06.960Z,75.30
2018-03-03T19:11:33.235Z,75.50
2018-03-03T19:14:00.211Z,75.60
2018-03-03T19:16:27.520Z,75.60
2018-03-03T19:18:53.911Z,75.50
2018-03-03T19:21:20.176Z,75.50
2018-03-03T19:23:46.406Z,75.50
2018-03-03T19:26:14.810Z,75.40
2018-03-03T19:28:42.157Z,76.40
2018-03-03T19:31:08.407Z,75.80
2018-03-03T19:33:34.988Z,75.50
2018-03-03T19:36:01.410Z,75.50
2018-03-03T19:38:28.001Z,75.50
2018-03-03T19:40:54.427Z,75.50
2018-03-03T19:43:21.625Z,75.60
2018-03-03T19:45:48.592Z,76.20
2018-03-03T19:48:15.856Z,75.50
2018-03-03T19:50:43.043Z,75.60
2018-03-03T19:53:09.436Z,75.60
2018-03-03T19:55:36.104Z,75.50
2018-03-03T19:58:02.691Z,75.70
2018-03-03T20:00:29.548Z,75.40
2018-03-03T20:02:55.945Z,75.30
2018-03-03T20:05:22.447Z,75.30
2018-03-03T20:07:48.671Z,75.20
2018-03-03T20:10:15.239Z,75.90
2018-03-03T20:12:41.550Z,75.60
2018-03-03T20:15:09.434Z,75.30
2018-03-03T20:17:35.864Z,75.20
2018-03-03T20:20:05.355Z,75.60
2018-03-03T20:22:31.850Z,75.50
2018-03-03T20:24:58.214Z,75.20
2018-03-03T20:27:25.276Z,75.40
2018-03-03T20:29:51.733Z,75.50
2018-03-03T20:32:21.195Z,75.60
2018-03-03T20:34:47.581Z,75.50
2018-03-03T20:37:13.835Z,75.50
2018-03-03T20:39:40.235Z,75.50
2018-03-03T20:42:07.567Z,75.50
2018-03-03T20:44:34.900Z,75.50
2018-03-03T20:47:02.678Z,75.40
2018-03-03T20:49:28.994Z,75.30
2018-03-03T20:51:55.258Z,75.30
2018-03-03T20:54:21.527Z,75.40
2018-03-03T20:56:50.376Z,75.80
2018-03-03T20:59:16.720Z,75.20
2018-03-03T21:01:43.988Z,75.00
2018-03-03T21:04:12.586Z,75.20
2018-03-03T21:06:38.984Z,74.90
2018-03-03T21:09:11.475Z,74.80
2018-03-03T21:11:39.787Z,74.70
2018-03-03T21:14:07.890Z,74.60
2018-03-03T21:16:35.326Z,74.60
2018-03-03T21:19:04.923Z,74.90
2018-03-03T21:21:31.394Z,74.80
2018-03-03T21:23:57.799Z,75.30
2018-03-03T21:26:24.250Z,74.70
2018-03-03T21:28:56.587Z,74.50
2018-03-03T21:31:24.471Z,74.60
2018-03-03T21:33:52.014Z,74.60
2018-03-03T21:36:19.299Z,74.50
2018-03-03T21:38:48.979Z,74.70
2018-03-03T21:41:15.649Z,74.50
2018-03-03T21:43:43.018Z,74.70
2018-03-03T21:46:09.490Z,74.50
2018-03-03T21:48:35.956Z,74.60
2018-03-03T21:51:10.008Z,74.60
2018-03-03T21:53:37.297Z,74.70
2018-03-03T21:56:03.935Z,74.70
2018-03-03T21:58:30.896Z,74.70
2018-03-03T22:00:58.086Z,74.70
2018-03-03T22:03:30.423Z,74.60
2018-03-03T22:06:01.575Z,74.60
2018-03-03T22:08:27.803Z,74.80
2018-03-03T22:10:55.239Z,75.40
2018-03-03T22:13:22.392Z,74.80
2018-03-03T22:16:01.832Z,74.70
2018-03-03T22:18:28.895Z,74.70
2018-03-03T22:20:56.813Z,74.60
2018-03-03T22:23:23.390Z,74.70
2018-03-03T22:25:50.143Z,74.60
2018-03-03T22:28:16.444Z,74.40
2018-03-03T22:30:43.384Z,74.50
2018-03-03T22:33:09.975Z,74.30
2018-03-03T22:35:37.434Z,74.40
2018-03-03T22:38:04.660Z,74.30
2018-03-03T22:40:30.927Z,74.30
2018-03-03T22:42:57.256Z,74.20
2018-03-03T22:45:23.487Z,74.60
2018-03-03T22:47:50.024Z,74.50
2018-03-03T22:50:16.468Z,74.50
2018-03-03T22:52:42.711Z,74.40
2018-03-03T22:55:09.215Z,74.60
2018-03-03T22:57:38.595Z,74.80
2018-03-03T23:00:04.877Z,74.80
2018-03-03T23:02:31.898Z,75.10
2018-03-03T23:04:58.915Z,75.00
2018-03-03T23:07:25.172Z,74.90
2018-03-03T23:09:51.633Z,74.90
2018-03-03T23:12:18.303Z,74.70
2018-03-03T23:14:45.156Z,74.70
2018-03-03T23:17:11.394Z,75.00
2018-03-03T23:19:37.647Z,75.10
2018-03-03T23:22:03.900Z,75.10
2018-03-03T23:24:30.253Z,75.30
2018-03-03T23:26:57.694Z,75.70
2018-03-03T23:29:24.720Z,75.70
2018-03-03T23:31:50.970Z,76.20
2018-03-03T23:34:17.487Z,76.60
2018-03-03T23:36:43.707Z,77.10
2018-03-03T23:39:10.514Z,77.40
2018-03-03T23:41:36.764Z,77.40
2018-03-03T23:44:03.054Z,77.40
2018-03-03T23:46:29.278Z,77.60
2018-03-03T23:48:56.325Z,77.90
2018-03-03T23:51:24.207Z,78.50
2018-03-03T23:53:50.499Z,77.90
2018-03-03T23:56:16.729Z,78.20
2018-03-03T23:58:42.986Z,78.10
